sensor_id;sensor_type;location;lat;lon;timestamp;temperature;humidity
19037;DHT22;9651;49.138;8.900;2022-09-21T00:02:28;8.00;99.90
19037;DHT22;9651;49.138;8.900;2022-09-21T00:06:32;8.00;99.90
19037;DHT22;9651;49.138;8.900;2022-09-21T00:10:36;8.00;99.90
19037;DHT22;9651;49.138;8.900;2022-09-21T00:14:37;7.90;99.90
19037;DHT22;9651;49.138;8.900;2022-09-21T00:18:39;7.80;99.90
19037;DHT22;9651;49.138;8.900;2022-09-21T00:22:41;7.80;99.90
19037;DHT22;9651;49.138;8.900;2022-09-21T00:26:45;7.80;99.90
19037;DHT22;9651;49.138;8.900;2022-09-21T00:30:46;7.70;99.90
19037;DHT22;9651;49.138;8.900;2022-09-21T00:34:51;7.70;99.90
19037;DHT22;9651;49.138;8.900;2022-09-21T00:38:55;7.70;99.90
19037;DHT22;9651;49.138;8.900;2022-09-21T00:43:12;7.70;99.90
19037;DHT22;9651;49.138;8.900;2022-09-21T00:47:16;7.70;99.90
19037;DHT22;9651;49.138;8.900;2022-09-21T00:51:20;7.60;99.90
19037;DHT22;9651;49.138;8.900;2022-09-21T00:55:26;7.50;99.90
19037;DHT22;9651;49.138;8.900;2022-09-21T00:59:33;7.50;99.90
19037;DHT22;9651;49.138;8.900;2022-09-21T01:03:36;7.40;99.90
19037;DHT22;9651;49.138;8.900;2022-09-21T01:07:43;7.30;99.90
19037;DHT22;9651;49.138;8.900;2022-09-21T01:11:53;7.30;99.90
19037;DHT22;9651;49.138;8.900;2022-09-21T01:16:06;7.30;99.90
19037;DHT22;9651;49.138;8.900;2022-09-21T01:24:54;7.30;99.90
19037;DHT22;9651;49.138;8.900;2022-09-21T01:29:11;7.20;99.90
19037;DHT22;9651;49.138;8.900;2022-09-21T01:33:16;7.10;99.90
19037;DHT22;9651;49.138;8.900;2022-09-21T01:37:25;7.10;99.90
19037;DHT22;9651;49.138;8.900;2022-09-21T01:41:31;7.10;99.90
19037;DHT22;9651;49.138;8.900;2022-09-21T01:45:37;7.10;99.90
19037;DHT22;9651;49.138;8.900;2022-09-21T01:49:43;7.10;99.90
19037;DHT22;9651;49.138;8.900;2022-09-21T01:53:49;7.00;99.90
19037;DHT22;9651;49.138;8.900;2022-09-21T01:57:57;6.90;99.90
19037;DHT22;9651;49.138;8.900;2022-09-21T02:02:07;6.80;99.90
19037;DHT22;9651;49.138;8.900;2022-09-21T02:06:10;6.80;99.90
19037;DHT22;9651;49.138;8.900;2022-09-21T02:10:22;6.80;99.90
19037;DHT22;9651;49.138;8.900;2022-09-21T02:14:25;6.80;99.90
19037;DHT22;9651;49.138;8.900;2022-09-21T02:18:38;6.80;99.90
19037;DHT22;9651;49.138;8.900;2022-09-21T02:22:56;6.70;99.90
19037;DHT22;9651;49.138;8.900;2022-09-21T02:27:05;6.70;99.90
19037;DHT22;9651;49.138;8.900;2022-09-21T02:31:12;6.80;99.90
19037;DHT22;9651;49.138;8.900;2022-09-21T02:35:23;6.80;99.90
19037;DHT22;9651;49.138;8.900;2022-09-21T02:39:30;6.70;99.90
19037;DHT22;9651;49.138;8.900;2022-09-21T02:43:36;6.60;99.90
19037;DHT22;9651;49.138;8.900;2022-09-21T02:47:45;6.60;99.90
19037;DHT22;9651;49.138;8.900;2022-09-21T02:51:51;6.50;99.90
19037;DHT22;9651;49.138;8.900;2022-09-21T02:55:56;6.50;99.90
19037;DHT22;9651;49.138;8.900;2022-09-21T03:00:00;6.40;99.90
19037;DHT22;9651;49.138;8.900;2022-09-21T03:04:02;6.40;99.90
19037;DHT22;9651;49.138;8.900;2022-09-21T03:08:06;6.40;99.90
19037;DHT22;9651;49.138;8.900;2022-09-21T03:12:08;6.40;99.90
19037;DHT22;9651;49.138;8.900;2022-09-21T03:16:10;6.40;99.90
19037;DHT22;9651;49.138;8.900;2022-09-21T03:20:12;6.40;99.90
19037;DHT22;9651;49.138;8.900;2022-09-21T03:24:16;6.40;99.90
19037;DHT22;9651;49.138;8.900;2022-09-21T03:28:39;6.40;99.90
19037;DHT22;9651;49.138;8.900;2022-09-21T03:32:41;6.40;99.90
19037;DHT22;9651;49.138;8.900;2022-09-21T03:36:43;6.50;99.90
19037;DHT22;9651;49.138;8.900;2022-09-21T03:40:46;6.50;99.90
19037;DHT22;9651;49.138;8.900;2022-09-21T03:44:48;6.50;99.90
19037;DHT22;9651;49.138;8.900;2022-09-21T03:48:50;6.50;99.90
19037;DHT22;9651;49.138;8.900;2022-09-21T03:52:52;6.40;99.90
19037;DHT22;9651;49.138;8.900;2022-09-21T03:56:55;6.40;99.90
19037;DHT22;9651;49.138;8.900;2022-09-21T04:01:00;6.40;99.90
19037;DHT22;9651;49.138;8.900;2022-09-21T04:05:03;6.40;99.90
19037;DHT22;9651;49.138;8.900;2022-09-21T04:09:06;6.50;99.90
19037;DHT22;9651;49.138;8.900;2022-09-21T04:13:09;6.50;99.90
19037;DHT22;9651;49.138;8.900;2022-09-21T04:17:13;6.50;99.90
19037;DHT22;9651;49.138;8.900;2022-09-21T04:21:15;6.50;99.90
19037;DHT22;9651;49.138;8.900;2022-09-21T04:25:17;6.50;99.90
19037;DHT22;9651;49.138;8.900;2022-09-21T04:29:20;6.50;99.90
19037;DHT22;9651;49.138;8.900;2022-09-21T04:33:22;6.60;99.90
19037;DHT22;9651;49.138;8.900;2022-09-21T04:37:24;6.60;99.90
19037;DHT22;9651;49.138;8.900;2022-09-21T04:41:26;6.60;99.90
19037;DHT22;9651;49.138;8.900;2022-09-21T04:45:29;6.70;99.90
19037;DHT22;9651;49.138;8.900;2022-09-21T04:49:31;6.70;99.90
19037;DHT22;9651;49.138;8.900;2022-09-21T04:53:34;6.80;99.90
19037;DHT22;9651;49.138;8.900;2022-09-21T04:57:36;6.80;99.90
19037;DHT22;9651;49.138;8.900;2022-09-21T05:01:39;6.90;99.90
19037;DHT22;9651;49.138;8.900;2022-09-21T05:05:45;6.90;99.90
19037;DHT22;9651;49.138;8.900;2022-09-21T05:09:47;6.90;99.90
19037;DHT22;9651;49.138;8.900;2022-09-21T05:14:04;7.00;99.90
19037;DHT22;9651;49.138;8.900;2022-09-21T05:18:08;7.00;99.90
19037;DHT22;9651;49.138;8.900;2022-09-21T05:22:09;7.00;99.90
19037;DHT22;9651;49.138;8.900;2022-09-21T05:26:11;7.00;99.90
19037;DHT22;9651;49.138;8.900;2022-09-21T05:30:14;7.10;99.90
19037;DHT22;9651;49.138;8.900;2022-09-21T05:34:27;7.10;99.90
19037;DHT22;9651;49.138;8.900;2022-09-21T05:38:30;7.10;99.90
19037;DHT22;9651;49.138;8.900;2022-09-21T05:42:33;7.10;99.90
19037;DHT22;9651;49.138;8.900;2022-09-21T05:46:38;7.10;99.90
19037;DHT22;9651;49.138;8.900;2022-09-21T05:50:51;7.20;99.90
19037;DHT22;9651;49.138;8.900;2022-09-21T05:55:02;7.30;99.90
19037;DHT22;9651;49.138;8.900;2022-09-21T05:59:42;7.40;99.90
19037;DHT22;9651;49.138;8.900;2022-09-21T06:03:46;7.40;99.90
19037;DHT22;9651;49.138;8.900;2022-09-21T06:07:51;7.40;99.90
19037;DHT22;9651;49.138;8.900;2022-09-21T06:11:52;7.40;99.90
19037;DHT22;9651;49.138;8.900;2022-09-21T06:15:54;7.40;99.90
19037;DHT22;9651;49.138;8.900;2022-09-21T06:19:56;7.30;99.90
19037;DHT22;9651;49.138;8.900;2022-09-21T06:24:00;7.40;99.90
19037;DHT22;9651;49.138;8.900;2022-09-21T06:28:03;7.40;99.90
19037;DHT22;9651;49.138;8.900;2022-09-21T06:32:05;7.60;99.90
19037;DHT22;9651;49.138;8.900;2022-09-21T06:36:07;7.80;99.90
19037;DHT22;9651;49.138;8.900;2022-09-21T06:40:10;7.90;99.90
19037;DHT22;9651;49.138;8.900;2022-09-21T06:44:12;8.10;99.90
19037;DHT22;9651;49.138;8.900;2022-09-21T06:48:13;8.30;99.90
19037;DHT22;9651;49.138;8.900;2022-09-21T06:52:15;8.40;99.90
19037;DHT22;9651;49.138;8.900;2022-09-21T06:56:18;8.60;99.90
19037;DHT22;9651;49.138;8.900;2022-09-21T07:00:20;8.90;99.90
19037;DHT22;9651;49.138;8.900;2022-09-21T07:04:22;9.10;99.90
19037;DHT22;9651;49.138;8.900;2022-09-21T07:08:25;9.20;99.90
19037;DHT22;9651;49.138;8.900;2022-09-21T07:12:28;9.10;99.90
19037;DHT22;9651;49.138;8.900;2022-09-21T07:16:31;9.10;99.90
19037;DHT22;9651;49.138;8.900;2022-09-21T07:20:34;9.10;99.90
19037;DHT22;9651;49.138;8.900;2022-09-21T07:24:36;9.30;99.90
19037;DHT22;9651;49.138;8.900;2022-09-21T07:28:40;9.40;99.90
19037;DHT22;9651;49.138;8.900;2022-09-21T07:32:42;9.70;99.90
19037;DHT22;9651;49.138;8.900;2022-09-21T07:36:44;10.20;99.90
19037;DHT22;9651;49.138;8.900;2022-09-21T07:40:45;10.80;99.90
19037;DHT22;9651;49.138;8.900;2022-09-21T07:44:49;11.20;99.90
19037;DHT22;9651;49.138;8.900;2022-09-21T07:48:53;11.30;99.90
19037;DHT22;9651;49.138;8.900;2022-09-21T07:52:57;11.90;99.90
19037;DHT22;9651;49.138;8.900;2022-09-21T07:57:00;12.40;99.90
19037;DHT22;9651;49.138;8.900;2022-09-21T08:01:21;12.70;99.90
19037;DHT22;9651;49.138;8.900;2022-09-21T08:05:23;13.10;99.90
19037;DHT22;9651;49.138;8.900;2022-09-21T08:09:25;13.80;99.90
19037;DHT22;9651;49.138;8.900;2022-09-21T08:13:27;14.40;99.90
19037;DHT22;9651;49.138;8.900;2022-09-21T08:17:30;15.10;99.90
19037;DHT22;9651;49.138;8.900;2022-09-21T08:21:32;15.60;99.90
19037;DHT22;9651;49.138;8.900;2022-09-21T08:25:34;16.20;99.90
19037;DHT22;9651;49.138;8.900;2022-09-21T08:29:36;16.70;99.90
19037;DHT22;9651;49.138;8.900;2022-09-21T08:33:39;16.90;99.90
19037;DHT22;9651;49.138;8.900;2022-09-21T08:37:41;17.10;99.90
19037;DHT22;9651;49.138;8.900;2022-09-21T08:42:03;17.00;99.90
19037;DHT22;9651;49.138;8.900;2022-09-21T08:46:11;17.40;99.90
19037;DHT22;9651;49.138;8.900;2022-09-21T08:50:34;17.60;99.90
19037;DHT22;9651;49.138;8.900;2022-09-21T08:54:42;18.10;99.90
19037;DHT22;9651;49.138;8.900;2022-09-21T08:58:47;18.10;99.90
19037;DHT22;9651;49.138;8.900;2022-09-21T09:07:51;18.10;99.90
19037;DHT22;9651;49.138;8.900;2022-09-21T09:12:11;18.50;99.90
19037;DHT22;9651;49.138;8.900;2022-09-21T09:16:23;19.40;99.90
19037;DHT22;9651;49.138;8.900;2022-09-21T09:20:30;19.90;99.90
19037;DHT22;9651;49.138;8.900;2022-09-21T09:24:39;20.20;99.90
19037;DHT22;9651;49.138;8.900;2022-09-21T09:28:44;21.00;99.90
19037;DHT22;9651;49.138;8.900;2022-09-21T09:32:53;21.10;99.90
19037;DHT22;9651;49.138;8.900;2022-09-21T09:36:59;20.60;99.90
19037;DHT22;9651;49.138;8.900;2022-09-21T09:41:23;20.00;99.90
19037;DHT22;9651;49.138;8.900;2022-09-21T09:45:42;20.70;99.90
19037;DHT22;9651;49.138;8.900;2022-09-21T09:49:57;21.40;99.90
19037;DHT22;9651;49.138;8.900;2022-09-21T09:54:02;21.40;99.90
19037;DHT22;9651;49.138;8.900;2022-09-21T10:02:19;20.90;99.90
19037;DHT22;9651;49.138;8.900;2022-09-21T10:06:30;21.90;99.90
19037;DHT22;9651;49.138;8.900;2022-09-21T10:10:34;22.80;99.90
19037;DHT22;9651;49.138;8.900;2022-09-21T10:14:37;23.00;98.40
19037;DHT22;9651;49.138;8.900;2022-09-21T10:18:44;23.80;96.60
19037;DHT22;9651;49.138;8.900;2022-09-21T10:22:53;24.10;93.60
19037;DHT22;9651;49.138;8.900;2022-09-21T10:27:02;24.00;92.80
19037;DHT22;9651;49.138;8.900;2022-09-21T10:31:15;24.60;92.70
19037;DHT22;9651;49.138;8.900;2022-09-21T10:35:18;25.50;91.40
19037;DHT22;9651;49.138;8.900;2022-09-21T10:39:23;26.50;87.10
19037;DHT22;9651;49.138;8.900;2022-09-21T10:43:32;26.20;83.70
19037;DHT22;9651;49.138;8.900;2022-09-21T10:47:39;26.00;85.00
19037;DHT22;9651;49.138;8.900;2022-09-21T10:51:44;25.70;84.70
19037;DHT22;9651;49.138;8.900;2022-09-21T10:55:59;26.60;82.90
19037;DHT22;9651;49.138;8.900;2022-09-21T11:00:11;26.60;80.30
19037;DHT22;9651;49.138;8.900;2022-09-21T11:04:35;26.60;80.00
19037;DHT22;9651;49.138;8.900;2022-09-21T11:08:44;27.10;78.30
19037;DHT22;9651;49.138;8.900;2022-09-21T11:12:54;27.20;73.40
19037;DHT22;9651;49.138;8.900;2022-09-21T11:17:03;27.20;74.00
19037;DHT22;9651;49.138;8.900;2022-09-21T11:21:16;26.70;74.80
19037;DHT22;9651;49.138;8.900;2022-09-21T11:25:27;27.10;74.50
19037;DHT22;9651;49.138;8.900;2022-09-21T11:29:39;27.10;72.30
19037;DHT22;9651;49.138;8.900;2022-09-21T11:34:00;28.30;73.00
19037;DHT22;9651;49.138;8.900;2022-09-21T11:38:12;29.70;70.00
19037;DHT22;9651;49.138;8.900;2022-09-21T11:42:30;29.10;68.50
19037;DHT22;9651;49.138;8.900;2022-09-21T11:46:39;26.90;70.30
19037;DHT22;9651;49.138;8.900;2022-09-21T11:50:55;26.80;70.40
19037;DHT22;9651;49.138;8.900;2022-09-21T11:55:20;26.90;72.30
19037;DHT22;9651;49.138;8.900;2022-09-21T11:59:39;28.80;70.20
19037;DHT22;9651;49.138;8.900;2022-09-21T12:03:51;29.10;68.60
19037;DHT22;9651;49.138;8.900;2022-09-21T12:08:17;30.30;65.80
19037;DHT22;9651;49.138;8.900;2022-09-21T12:12:27;30.80;63.00
19037;DHT22;9651;49.138;8.900;2022-09-21T12:16:37;28.20;64.60
19037;DHT22;9651;49.138;8.900;2022-09-21T12:20:46;28.40;65.80
19037;DHT22;9651;49.138;8.900;2022-09-21T12:24:52;29.30;63.40
19037;DHT22;9651;49.138;8.900;2022-09-21T12:29:00;30.30;61.80
19037;DHT22;9651;49.138;8.900;2022-09-21T12:33:08;30.00;61.70
19037;DHT22;9651;49.138;8.900;2022-09-21T12:37:13;30.60;60.90
19037;DHT22;9651;49.138;8.900;2022-09-21T12:41:20;28.90;60.50
19037;DHT22;9651;49.138;8.900;2022-09-21T12:45:28;26.60;64.10
19037;DHT22;9651;49.138;8.900;2022-09-21T12:49:32;27.50;63.90
19037;DHT22;9651;49.138;8.900;2022-09-21T12:53:35;28.80;62.10
19037;DHT22;9651;49.138;8.900;2022-09-21T12:57:49;29.80;60.40
19037;DHT22;9651;49.138;8.900;2022-09-21T13:02:09;27.00;62.30
19037;DHT22;9651;49.138;8.900;2022-09-21T13:06:34;24.30;64.40
19037;DHT22;9651;49.138;8.900;2022-09-21T13:10:42;22.60;68.40
19037;DHT22;9651;49.138;8.900;2022-09-21T13:14:49;21.80;70.90
19037;DHT22;9651;49.138;8.900;2022-09-21T13:18:59;20.60;71.10
19037;DHT22;9651;49.138;8.900;2022-09-21T13:23:01;19.90;72.60
19037;DHT22;9651;49.138;8.900;2022-09-21T13:27:04;19.60;73.70
19037;DHT22;9651;49.138;8.900;2022-09-21T13:31:41;19.30;76.00
19037;DHT22;9651;49.138;8.900;2022-09-21T13:40:32;19.30;76.40
19037;DHT22;9651;49.138;8.900;2022-09-21T13:44:42;19.30;77.60
19037;DHT22;9651;49.138;8.900;2022-09-21T13:48:51;19.00;76.10
19037;DHT22;9651;49.138;8.900;2022-09-21T13:52:56;18.90;78.80
19037;DHT22;9651;49.138;8.900;2022-09-21T13:57:03;18.70;78.10
19037;DHT22;9651;49.138;8.900;2022-09-21T14:01:11;18.40;78.70
19037;DHT22;9651;49.138;8.900;2022-09-21T14:05:24;18.30;79.80
19037;DHT22;9651;49.138;8.900;2022-09-21T14:09:30;18.40;83.40
19037;DHT22;9651;49.138;8.900;2022-09-21T14:13:36;18.60;84.90
19037;DHT22;9651;49.138;8.900;2022-09-21T14:17:41;18.70;84.40
19037;DHT22;9651;49.138;8.900;2022-09-21T14:26:35;18.40;86.60
19037;DHT22;9651;49.138;8.900;2022-09-21T14:30:54;18.30;87.70
19037;DHT22;9651;49.138;8.900;2022-09-21T14:35:00;18.50;89.00
19037;DHT22;9651;49.138;8.900;2022-09-21T14:39:15;18.50;86.00
19037;DHT22;9651;49.138;8.900;2022-09-21T14:43:23;18.50;87.70
19037;DHT22;9651;49.138;8.900;2022-09-21T14:47:49;18.50;88.50
19037;DHT22;9651;49.138;8.900;2022-09-21T14:52:01;18.40;86.90
19037;DHT22;9651;49.138;8.900;2022-09-21T14:56:29;18.20;85.50
19037;DHT22;9651;49.138;8.900;2022-09-21T15:00:38;18.10;87.20
19037;DHT22;9651;49.138;8.900;2022-09-21T15:04:50;17.90;89.10
19037;DHT22;9651;49.138;8.900;2022-09-21T15:09:04;18.00;90.80
19037;DHT22;9651;49.138;8.900;2022-09-21T15:13:37;17.90;91.10
19037;DHT22;9651;49.138;8.900;2022-09-21T15:17:53;17.80;92.10
19037;DHT22;9651;49.138;8.900;2022-09-21T15:22:08;17.90;92.10
19037;DHT22;9651;49.138;8.900;2022-09-21T15:26:14;17.80;92.90
19037;DHT22;9651;49.138;8.900;2022-09-21T15:30:20;17.90;92.50
19037;DHT22;9651;49.138;8.900;2022-09-21T15:34:25;17.90;91.90
19037;DHT22;9651;49.138;8.900;2022-09-21T15:38:29;17.80;92.50
19037;DHT22;9651;49.138;8.900;2022-09-21T15:42:33;17.80;92.60
19037;DHT22;9651;49.138;8.900;2022-09-21T15:46:35;17.70;91.80
19037;DHT22;9651;49.138;8.900;2022-09-21T15:50:52;17.60;91.90
19037;DHT22;9651;49.138;8.900;2022-09-21T15:54:58;17.60;92.60
19037;DHT22;9651;49.138;8.900;2022-09-21T15:59:02;17.50;93.50
19037;DHT22;9651;49.138;8.900;2022-09-21T16:03:18;17.50;93.10
19037;DHT22;9651;49.138;8.900;2022-09-21T16:07:29;17.40;92.60
19037;DHT22;9651;49.138;8.900;2022-09-21T16:11:33;17.20;92.10
19037;DHT22;9651;49.138;8.900;2022-09-21T16:15:38;17.20;92.50
19037;DHT22;9651;49.138;8.900;2022-09-21T16:19:40;17.00;93.00
19037;DHT22;9651;49.138;8.900;2022-09-21T16:23:44;16.90;93.50
19037;DHT22;9651;49.138;8.900;2022-09-21T16:27:50;16.80;94.30
19037;DHT22;9651;49.138;8.900;2022-09-21T16:32:19;16.70;94.70
19037;DHT22;9651;49.138;8.900;2022-09-21T16:36:42;16.60;94.90
19037;DHT22;9651;49.138;8.900;2022-09-21T16:40:48;16.60;95.10
19037;DHT22;9651;49.138;8.900;2022-09-21T16:44:51;16.50;95.30
19037;DHT22;9651;49.138;8.900;2022-09-21T16:48:54;16.40;95.60
19037;DHT22;9651;49.138;8.900;2022-09-21T16:52:56;16.30;95.90
19037;DHT22;9651;49.138;8.900;2022-09-21T16:57:01;16.20;96.50
19037;DHT22;9651;49.138;8.900;2022-09-21T17:01:07;16.10;97.00
19037;DHT22;9651;49.138;8.900;2022-09-21T17:05:14;16.00;97.20
19037;DHT22;9651;49.138;8.900;2022-09-21T17:09:21;15.90;97.60
19037;DHT22;9651;49.138;8.900;2022-09-21T17:13:24;15.80;98.10
19037;DHT22;9651;49.138;8.900;2022-09-21T17:17:27;15.70;98.30
19037;DHT22;9651;49.138;8.900;2022-09-21T17:21:32;15.60;99.00
19037;DHT22;9651;49.138;8.900;2022-09-21T17:25:35;15.50;99.70
19037;DHT22;9651;49.138;8.900;2022-09-21T17:29:38;15.40;99.90
19037;DHT22;9651;49.138;8.900;2022-09-21T17:33:50;15.30;99.90
19037;DHT22;9651;49.138;8.900;2022-09-21T17:37:53;15.10;99.90
19037;DHT22;9651;49.138;8.900;2022-09-21T17:41:58;15.00;99.90
19037;DHT22;9651;49.138;8.900;2022-09-21T17:46:09;14.90;99.90
19037;DHT22;9651;49.138;8.900;2022-09-21T17:50:30;14.80;99.90
19037;DHT22;9651;49.138;8.900;2022-09-21T17:54:33;14.70;99.90
19037;DHT22;9651;49.138;8.900;2022-09-21T17:58:42;14.50;99.90
19037;DHT22;9651;49.138;8.900;2022-09-21T18:02:47;14.30;99.90
19037;DHT22;9651;49.138;8.900;2022-09-21T18:06:49;14.10;99.90
19037;DHT22;9651;49.138;8.900;2022-09-21T18:10:59;14.00;99.90
19037;DHT22;9651;49.138;8.900;2022-09-21T18:15:09;13.90;99.90
19037;DHT22;9651;49.138;8.900;2022-09-21T18:19:27;13.80;99.90
19037;DHT22;9651;49.138;8.900;2022-09-21T18:23:42;13.70;99.90
19037;DHT22;9651;49.138;8.900;2022-09-21T18:27:48;13.60;99.90
19037;DHT22;9651;49.138;8.900;2022-09-21T18:32:04;13.60;99.90
19037;DHT22;9651;49.138;8.900;2022-09-21T18:36:19;13.50;99.90
19037;DHT22;9651;49.138;8.900;2022-09-21T18:40:28;13.40;99.90
19037;DHT22;9651;49.138;8.900;2022-09-21T18:44:37;13.20;99.90
19037;DHT22;9651;49.138;8.900;2022-09-21T18:48:50;13.00;99.90
19037;DHT22;9651;49.138;8.900;2022-09-21T18:52:59;12.80;99.90
19037;DHT22;9651;49.138;8.900;2022-09-21T18:57:04;12.70;99.90
19037;DHT22;9651;49.138;8.900;2022-09-21T19:01:10;12.50;99.90
19037;DHT22;9651;49.138;8.900;2022-09-21T19:05:13;12.40;99.90
19037;DHT22;9651;49.138;8.900;2022-09-21T19:09:34;12.30;99.90
19037;DHT22;9651;49.138;8.900;2022-09-21T19:13:46;12.10;99.90
19037;DHT22;9651;49.138;8.900;2022-09-21T19:18:12;12.10;99.90
19037;DHT22;9651;49.138;8.900;2022-09-21T19:22:22;12.00;99.90
19037;DHT22;9651;49.138;8.900;2022-09-21T19:26:34;11.80;99.90
19037;DHT22;9651;49.138;8.900;2022-09-21T19:30:39;11.70;99.90
19037;DHT22;9651;49.138;8.900;2022-09-21T19:34:42;11.60;99.90
19037;DHT22;9651;49.138;8.900;2022-09-21T19:38:45;11.50;99.90
19037;DHT22;9651;49.138;8.900;2022-09-21T19:43:00;11.40;99.90
19037;DHT22;9651;49.138;8.900;2022-09-21T19:47:09;11.30;99.90
19037;DHT22;9651;49.138;8.900;2022-09-21T19:51:18;11.30;99.90
19037;DHT22;9651;49.138;8.900;2022-09-21T19:55:20;11.20;99.90
19037;DHT22;9651;49.138;8.900;2022-09-21T19:59:42;11.10;99.90
19037;DHT22;9651;49.138;8.900;2022-09-21T20:03:45;11.10;99.90
19037;DHT22;9651;49.138;8.900;2022-09-21T20:07:51;11.00;99.90
19037;DHT22;9651;49.138;8.900;2022-09-21T20:12:00;10.90;99.90
19037;DHT22;9651;49.138;8.900;2022-09-21T20:16:20;10.90;99.90
19037;DHT22;9651;49.138;8.900;2022-09-21T20:20:27;10.80;99.90
19037;DHT22;9651;49.138;8.900;2022-09-21T20:24:38;10.70;99.90
19037;DHT22;9651;49.138;8.900;2022-09-21T20:28:43;10.70;99.90
19037;DHT22;9651;49.138;8.900;2022-09-21T20:32:49;10.60;99.90
19037;DHT22;9651;49.138;8.900;2022-09-21T20:36:52;10.50;99.90
19037;DHT22;9651;49.138;8.900;2022-09-21T20:40:56;10.50;99.90
19037;DHT22;9651;49.138;8.900;2022-09-21T20:44:58;10.50;99.90
19037;DHT22;9651;49.138;8.900;2022-09-21T20:49:01;10.40;99.90
19037;DHT22;9651;49.138;8.900;2022-09-21T20:53:08;10.30;99.90
19037;DHT22;9651;49.138;8.900;2022-09-21T20:57:10;10.20;99.90
19037;DHT22;9651;49.138;8.900;2022-09-21T21:01:12;10.20;99.90
19037;DHT22;9651;49.138;8.900;2022-09-21T21:05:15;10.10;99.90
19037;DHT22;9651;49.138;8.900;2022-09-21T21:09:18;10.10;99.90
19037;DHT22;9651;49.138;8.900;2022-09-21T21:13:19;10.00;99.90
19037;DHT22;9651;49.138;8.900;2022-09-21T21:17:22;9.90;99.90
19037;DHT22;9651;49.138;8.900;2022-09-21T21:21:25;9.80;99.90
19037;DHT22;9651;49.138;8.900;2022-09-21T21:25:27;9.80;99.90
19037;DHT22;9651;49.138;8.900;2022-09-21T21:29:29;9.70;99.90
19037;DHT22;9651;49.138;8.900;2022-09-21T21:33:31;9.60;99.90
19037;DHT22;9651;49.138;8.900;2022-09-21T21:37:35;9.60;99.90
19037;DHT22;9651;49.138;8.900;2022-09-21T21:41:37;9.50;99.90
19037;DHT22;9651;49.138;8.900;2022-09-21T21:45:39;9.40;99.90
19037;DHT22;9651;49.138;8.900;2022-09-21T21:49:41;9.40;99.90
19037;DHT22;9651;49.138;8.900;2022-09-21T21:53:45;9.30;99.90
19037;DHT22;9651;49.138;8.900;2022-09-21T21:57:46;9.20;99.90
19037;DHT22;9651;49.138;8.900;2022-09-21T22:01:48;9.10;99.90
19037;DHT22;9651;49.138;8.900;2022-09-21T22:05:54;9.10;99.90
19037;DHT22;9651;49.138;8.900;2022-09-21T22:09:57;9.20;99.90
19037;DHT22;9651;49.138;8.900;2022-09-21T22:14:00;9.10;99.90
19037;DHT22;9651;49.138;8.900;2022-09-21T22:18:02;9.10;99.90
19037;DHT22;9651;49.138;8.900;2022-09-21T22:22:04;9.00;99.90
19037;DHT22;9651;49.138;8.900;2022-09-21T22:26:10;8.90;99.90
19037;DHT22;9651;49.138;8.900;2022-09-21T22:30:12;8.80;99.90
19037;DHT22;9651;49.138;8.900;2022-09-21T22:34:14;8.70;99.90
19037;DHT22;9651;49.138;8.900;2022-09-21T22:38:16;8.70;99.90
19037;DHT22;9651;49.138;8.900;2022-09-21T22:42:20;8.70;99.90
19037;DHT22;9651;49.138;8.900;2022-09-21T22:46:24;8.70;99.90
19037;DHT22;9651;49.138;8.900;2022-09-21T22:50:26;8.70;99.90
19037;DHT22;9651;49.138;8.900;2022-09-21T22:54:28;8.70;99.90
19037;DHT22;9651;49.138;8.900;2022-09-21T22:58:33;8.60;99.90
19037;DHT22;9651;49.138;8.900;2022-09-21T23:02:35;8.50;99.90
19037;DHT22;9651;49.138;8.900;2022-09-21T23:06:39;8.40;99.90
19037;DHT22;9651;49.138;8.900;2022-09-21T23:10:41;8.40;99.90
19037;DHT22;9651;49.138;8.900;2022-09-21T23:14:45;8.30;99.90
19037;DHT22;9651;49.138;8.900;2022-09-21T23:18:48;8.30;99.90
19037;DHT22;9651;49.138;8.900;2022-09-21T23:22:49;8.30;99.90
19037;DHT22;9651;49.138;8.900;2022-09-21T23:26:51;8.30;99.90
19037;DHT22;9651;49.138;8.900;2022-09-21T23:30:56;8.40;99.90
19037;DHT22;9651;49.138;8.900;2022-09-21T23:34:59;8.40;99.90
19037;DHT22;9651;49.138;8.900;2022-09-21T23:39:02;8.40;99.90
19037;DHT22;9651;49.138;8.900;2022-09-21T23:43:04;8.40;99.90
19037;DHT22;9651;49.138;8.900;2022-09-21T23:47:07;8.30;99.90
19037;DHT22;9651;49.138;8.900;2022-09-21T23:51:09;8.20;99.90
19037;DHT22;9651;49.138;8.900;2022-09-21T23:55:11;8.20;99.90
19037;DHT22;9651;49.138;8.900;2022-09-21T23:59:13;8.20;99.90
